sensor_id;sensor_type;location;lat;lon;timestamp;P1;durP1;ratioP1;P2;durP2;ratioP2
55776;SDS011;54079;44.540;18.784;2023-04-25T00:02:18;2.15;;;1.50;;
55776;SDS011;54079;44.540;18.784;2023-04-25T00:04:44;2.88;;;1.58;;
55776;SDS011;54079;44.540;18.784;2023-04-25T00:07:11;2.15;;;1.52;;
55776;SDS011;54079;44.540;18.784;2023-04-25T00:09:37;2.38;;;2.03;;
55776;SDS011;54079;44.540;18.784;2023-04-25T00:12:03;3.35;;;2.38;;
55776;SDS011;54079;44.540;18.784;2023-04-25T00:14:30;2.55;;;2.05;;
55776;SDS011;54079;44.540;18.784;2023-04-25T00:16:59;4.20;;;3.13;;
55776;SDS011;54079;44.540;18.784;2023-04-25T00:19:25;3.85;;;3.45;;
55776;SDS011;54079;44.540;18.784;2023-04-25T00:21:54;4.00;;;3.60;;
55776;SDS011;54079;44.540;18.784;2023-04-25T00:24:20;3.80;;;3.30;;
55776;SDS011;54079;44.540;18.784;2023-04-25T00:26:46;3.78;;;3.28;;
55776;SDS011;54079;44.540;18.784;2023-04-25T00:29:12;3.83;;;2.75;;
55776;SDS011;54079;44.540;18.784;2023-04-25T00:31:38;3.85;;;2.97;;
55776;SDS011;54079;44.540;18.784;2023-04-25T00:34:05;4.53;;;3.75;;
55776;SDS011;54079;44.540;18.784;2023-04-25T00:36:33;3.70;;;2.90;;
55776;SDS011;54079;44.540;18.784;2023-04-25T00:38:59;4.90;;;2.85;;
55776;SDS011;54079;44.540;18.784;2023-04-25T00:41:25;4.07;;;3.38;;
55776;SDS011;54079;44.540;18.784;2023-04-25T00:43:52;5.93;;;5.13;;
55776;SDS011;54079;44.540;18.784;2023-04-25T00:46:19;7.47;;;4.85;;
55776;SDS011;54079;44.540;18.784;2023-04-25T00:48:45;6.10;;;4.20;;
55776;SDS011;54079;44.540;18.784;2023-04-25T00:51:14;5.80;;;3.33;;
55776;SDS011;54079;44.540;18.784;2023-04-25T00:53:44;3.80;;;3.40;;
55776;SDS011;54079;44.540;18.784;2023-04-25T00:56:10;5.60;;;3.72;;
55776;SDS011;54079;44.540;18.784;2023-04-25T00:58:36;4.03;;;3.22;;
55776;SDS011;54079;44.540;18.784;2023-04-25T01:01:03;2.97;;;2.50;;
55776;SDS011;54079;44.540;18.784;2023-04-25T01:03:31;2.90;;;2.67;;
55776;SDS011;54079;44.540;18.784;2023-04-25T01:06:01;3.55;;;2.53;;
55776;SDS011;54079;44.540;18.784;2023-04-25T01:08:27;2.85;;;2.40;;
55776;SDS011;54079;44.540;18.784;2023-04-25T01:10:53;2.05;;;1.83;;
55776;SDS011;54079;44.540;18.784;2023-04-25T01:13:19;4.63;;;2.30;;
55776;SDS011;54079;44.540;18.784;2023-04-25T01:15:45;3.47;;;1.83;;
55776;SDS011;54079;44.540;18.784;2023-04-25T01:18:11;2.53;;;1.48;;
55776;SDS011;54079;44.540;18.784;2023-04-25T01:20:37;1.60;;;1.30;;
55776;SDS011;54079;44.540;18.784;2023-04-25T01:23:05;1.88;;;1.70;;
55776;SDS011;54079;44.540;18.784;2023-04-25T01:25:31;1.58;;;0.98;;
55776;SDS011;54079;44.540;18.784;2023-04-25T01:27:57;1.20;;;0.70;;
55776;SDS011;54079;44.540;18.784;2023-04-25T01:30:25;2.08;;;1.63;;
55776;SDS011;54079;44.540;18.784;2023-04-25T01:32:54;1.40;;;1.20;;
55776;SDS011;54079;44.540;18.784;2023-04-25T01:35:21;1.95;;;1.40;;
55776;SDS011;54079;44.540;18.784;2023-04-25T01:37:49;1.10;;;0.98;;
55776;SDS011;54079;44.540;18.784;2023-04-25T01:40:16;2.60;;;1.60;;
55776;SDS011;54079;44.540;18.784;2023-04-25T01:42:44;1.83;;;1.52;;
55776;SDS011;54079;44.540;18.784;2023-04-25T01:45:11;2.47;;;1.60;;
55776;SDS011;54079;44.540;18.784;2023-04-25T01:47:38;3.42;;;2.38;;
55776;SDS011;54079;44.540;18.784;2023-04-25T01:50:05;4.20;;;2.25;;
55776;SDS011;54079;44.540;18.784;2023-04-25T01:52:32;3.00;;;2.53;;
55776;SDS011;54079;44.540;18.784;2023-04-25T01:55:01;5.13;;;2.83;;
55776;SDS011;54079;44.540;18.784;2023-04-25T01:57:28;3.97;;;2.90;;
55776;SDS011;54079;44.540;18.784;2023-04-25T01:59:58;3.17;;;2.30;;
55776;SDS011;54079;44.540;18.784;2023-04-25T02:02:26;4.53;;;2.90;;
55776;SDS011;54079;44.540;18.784;2023-04-25T02:04:52;2.65;;;2.00;;
55776;SDS011;54079;44.540;18.784;2023-04-25T02:07:19;4.82;;;3.03;;
55776;SDS011;54079;44.540;18.784;2023-04-25T02:09:45;9.40;;;7.05;;
55776;SDS011;54079;44.540;18.784;2023-04-25T02:12:11;7.72;;;6.00;;
55776;SDS011;54079;44.540;18.784;2023-04-25T02:14:37;13.27;;;9.25;;
55776;SDS011;54079;44.540;18.784;2023-04-25T02:17:03;9.95;;;8.35;;
55776;SDS011;54079;44.540;18.784;2023-04-25T02:19:30;8.93;;;6.32;;
55776;SDS011;54079;44.540;18.784;2023-04-25T02:21:56;4.68;;;2.35;;
55776;SDS011;54079;44.540;18.784;2023-04-25T02:24:23;2.00;;;1.75;;
55776;SDS011;54079;44.540;18.784;2023-04-25T02:26:49;1.23;;;1.10;;
55776;SDS011;54079;44.540;18.784;2023-04-25T02:29:15;1.70;;;1.13;;
55776;SDS011;54079;44.540;18.784;2023-04-25T02:31:41;1.92;;;0.95;;
55776;SDS011;54079;44.540;18.784;2023-04-25T02:34:07;0.50;;;0.25;;
55776;SDS011;54079;44.540;18.784;2023-04-25T02:36:33;0.75;;;0.30;;
55776;SDS011;54079;44.540;18.784;2023-04-25T02:39:00;0.70;;;0.60;;
55776;SDS011;54079;44.540;18.784;2023-04-25T02:41:28;1.25;;;0.50;;
55776;SDS011;54079;44.540;18.784;2023-04-25T02:43:54;0.30;;;0.25;;
55776;SDS011;54079;44.540;18.784;2023-04-25T02:46:20;0.75;;;0.32;;
55776;SDS011;54079;44.540;18.784;2023-04-25T02:48:46;0.25;;;0.17;;
55776;SDS011;54079;44.540;18.784;2023-04-25T02:51:12;0.73;;;0.50;;
55776;SDS011;54079;44.540;18.784;2023-04-25T02:53:38;1.48;;;0.30;;
55776;SDS011;54079;44.540;18.784;2023-04-25T02:56:04;1.77;;;0.60;;
55776;SDS011;54079;44.540;18.784;2023-04-25T02:58:30;0.80;;;0.20;;
55776;SDS011;54079;44.540;18.784;2023-04-25T03:00:56;0.47;;;0.32;;
55776;SDS011;54079;44.540;18.784;2023-04-25T03:03:22;1.38;;;0.70;;
55776;SDS011;54079;44.540;18.784;2023-04-25T03:05:49;0.95;;;0.60;;
55776;SDS011;54079;44.540;18.784;2023-04-25T03:08:16;1.08;;;0.70;;
55776;SDS011;54079;44.540;18.784;2023-04-25T03:10:42;1.27;;;0.43;;
55776;SDS011;54079;44.540;18.784;2023-04-25T03:13:09;0.43;;;0.22;;
55776;SDS011;54079;44.540;18.784;2023-04-25T03:15:35;0.90;;;0.45;;
55776;SDS011;54079;44.540;18.784;2023-04-25T03:18:02;0.68;;;0.52;;
55776;SDS011;54079;44.540;18.784;2023-04-25T03:20:28;0.77;;;0.28;;
55776;SDS011;54079;44.540;18.784;2023-04-25T03:22:54;0.30;;;0.10;;
55776;SDS011;54079;44.540;18.784;2023-04-25T03:25:21;2.08;;;0.50;;
55776;SDS011;54079;44.540;18.784;2023-04-25T03:27:47;0.20;;;0.20;;
55776;SDS011;54079;44.540;18.784;2023-04-25T03:30:13;0.70;;;0.30;;
55776;SDS011;54079;44.540;18.784;2023-04-25T03:32:39;1.42;;;0.85;;
55776;SDS011;54079;44.540;18.784;2023-04-25T03:35:05;0.52;;;0.38;;
55776;SDS011;54079;44.540;18.784;2023-04-25T03:37:32;2.05;;;1.50;;
55776;SDS011;54079;44.540;18.784;2023-04-25T03:39:58;1.85;;;1.20;;
55776;SDS011;54079;44.540;18.784;2023-04-25T03:42:24;2.78;;;0.88;;
55776;SDS011;54079;44.540;18.784;2023-04-25T03:44:50;2.95;;;1.73;;
55776;SDS011;54079;44.540;18.784;2023-04-25T03:47:17;2.63;;;1.55;;
55776;SDS011;54079;44.540;18.784;2023-04-25T03:49:43;0.68;;;0.65;;
55776;SDS011;54079;44.540;18.784;2023-04-25T03:52:09;0.73;;;0.52;;
55776;SDS011;54079;44.540;18.784;2023-04-25T03:54:35;0.80;;;0.60;;
55776;SDS011;54079;44.540;18.784;2023-04-25T03:57:01;1.42;;;0.73;;
55776;SDS011;54079;44.540;18.784;2023-04-25T03:59:27;2.28;;;1.40;;
55776;SDS011;54079;44.540;18.784;2023-04-25T04:01:53;0.93;;;0.60;;
55776;SDS011;54079;44.540;18.784;2023-04-25T04:04:19;1.27;;;1.02;;
55776;SDS011;54079;44.540;18.784;2023-04-25T04:06:45;1.55;;;1.10;;
55776;SDS011;54079;44.540;18.784;2023-04-25T04:09:11;2.30;;;1.77;;
55776;SDS011;54079;44.540;18.784;2023-04-25T04:11:38;2.90;;;1.63;;
55776;SDS011;54079;44.540;18.784;2023-04-25T04:14:07;1.83;;;1.20;;
55776;SDS011;54079;44.540;18.784;2023-04-25T04:16:33;1.55;;;1.00;;
55776;SDS011;54079;44.540;18.784;2023-04-25T04:18:59;1.83;;;1.17;;
55776;SDS011;54079;44.540;18.784;2023-04-25T04:21:25;3.60;;;3.25;;
55776;SDS011;54079;44.540;18.784;2023-04-25T04:23:52;1.38;;;1.23;;
55776;SDS011;54079;44.540;18.784;2023-04-25T04:26:19;2.00;;;1.38;;
55776;SDS011;54079;44.540;18.784;2023-04-25T04:28:48;3.90;;;2.72;;
55776;SDS011;54079;44.540;18.784;2023-04-25T04:31:22;3.53;;;1.95;;
55776;SDS011;54079;44.540;18.784;2023-04-25T04:33:49;2.13;;;1.92;;
55776;SDS011;54079;44.540;18.784;2023-04-25T04:36:15;4.95;;;3.38;;
55776;SDS011;54079;44.540;18.784;2023-04-25T04:38:44;2.83;;;2.33;;
55776;SDS011;54079;44.540;18.784;2023-04-25T04:41:10;3.60;;;3.00;;
55776;SDS011;54079;44.540;18.784;2023-04-25T04:43:36;3.35;;;2.55;;
55776;SDS011;54079;44.540;18.784;2023-04-25T04:46:04;6.25;;;3.70;;
55776;SDS011;54079;44.540;18.784;2023-04-25T04:48:33;2.55;;;1.60;;
55776;SDS011;54079;44.540;18.784;2023-04-25T04:50:59;6.07;;;4.00;;
55776;SDS011;54079;44.540;18.784;2023-04-25T04:53:26;4.88;;;3.47;;
55776;SDS011;54079;44.540;18.784;2023-04-25T04:55:52;3.97;;;2.70;;
55776;SDS011;54079;44.540;18.784;2023-04-25T04:58:19;4.28;;;3.30;;
55776;SDS011;54079;44.540;18.784;2023-04-25T05:00:45;5.10;;;3.38;;
55776;SDS011;54079;44.540;18.784;2023-04-25T05:03:11;2.35;;;2.13;;
55776;SDS011;54079;44.540;18.784;2023-04-25T05:05:38;2.45;;;1.60;;
55776;SDS011;54079;44.540;18.784;2023-04-25T05:08:05;4.65;;;2.65;;
55776;SDS011;54079;44.540;18.784;2023-04-25T05:10:31;5.63;;;3.75;;
55776;SDS011;54079;44.540;18.784;2023-04-25T05:12:57;6.13;;;4.35;;
55776;SDS011;54079;44.540;18.784;2023-04-25T05:15:23;9.07;;;6.07;;
55776;SDS011;54079;44.540;18.784;2023-04-25T05:17:49;6.70;;;4.65;;
55776;SDS011;54079;44.540;18.784;2023-04-25T05:20:15;9.02;;;5.75;;
55776;SDS011;54079;44.540;18.784;2023-04-25T05:22:43;7.78;;;5.53;;
55776;SDS011;54079;44.540;18.784;2023-04-25T05:25:09;4.47;;;3.50;;
55776;SDS011;54079;44.540;18.784;2023-04-25T05:27:36;5.00;;;3.65;;
55776;SDS011;54079;44.540;18.784;2023-04-25T05:30:01;4.38;;;3.60;;
55776;SDS011;54079;44.540;18.784;2023-04-25T05:32:28;7.32;;;5.97;;
55776;SDS011;54079;44.540;18.784;2023-04-25T05:34:53;7.82;;;4.85;;
55776;SDS011;54079;44.540;18.784;2023-04-25T05:37:19;8.50;;;5.18;;
55776;SDS011;54079;44.540;18.784;2023-04-25T05:39:45;6.18;;;4.35;;
55776;SDS011;54079;44.540;18.784;2023-04-25T05:42:11;9.18;;;6.75;;
55776;SDS011;54079;44.540;18.784;2023-04-25T05:44:37;6.10;;;4.88;;
55776;SDS011;54079;44.540;18.784;2023-04-25T05:47:03;8.82;;;6.65;;
55776;SDS011;54079;44.540;18.784;2023-04-25T05:49:30;11.90;;;8.13;;
55776;SDS011;54079;44.540;18.784;2023-04-25T05:51:55;14.93;;;11.10;;
55776;SDS011;54079;44.540;18.784;2023-04-25T05:54:21;11.88;;;9.70;;
55776;SDS011;54079;44.540;18.784;2023-04-25T05:56:47;7.95;;;6.90;;
55776;SDS011;54079;44.540;18.784;2023-04-25T05:59:13;9.00;;;7.57;;
55776;SDS011;54079;44.540;18.784;2023-04-25T06:01:39;11.85;;;7.72;;
55776;SDS011;54079;44.540;18.784;2023-04-25T06:04:05;11.18;;;8.07;;
55776;SDS011;54079;44.540;18.784;2023-04-25T06:06:31;6.88;;;5.53;;
55776;SDS011;54079;44.540;18.784;2023-04-25T06:08:57;7.15;;;5.88;;
55776;SDS011;54079;44.540;18.784;2023-04-25T06:11:23;7.18;;;6.25;;
55776;SDS011;54079;44.540;18.784;2023-04-25T06:13:49;10.15;;;7.43;;
55776;SDS011;54079;44.540;18.784;2023-04-25T06:16:15;5.72;;;4.78;;
55776;SDS011;54079;44.540;18.784;2023-04-25T06:18:41;6.28;;;5.30;;
55776;SDS011;54079;44.540;18.784;2023-04-25T06:21:07;9.45;;;6.72;;
55776;SDS011;54079;44.540;18.784;2023-04-25T06:23:33;5.78;;;5.13;;
55776;SDS011;54079;44.540;18.784;2023-04-25T06:25:59;10.85;;;7.88;;
55776;SDS011;54079;44.540;18.784;2023-04-25T06:28:25;7.25;;;5.50;;
55776;SDS011;54079;44.540;18.784;2023-04-25T06:30:51;6.72;;;5.25;;
55776;SDS011;54079;44.540;18.784;2023-04-25T06:33:17;5.68;;;4.30;;
55776;SDS011;54079;44.540;18.784;2023-04-25T06:35:43;5.82;;;4.65;;
55776;SDS011;54079;44.540;18.784;2023-04-25T06:38:09;5.57;;;3.85;;
55776;SDS011;54079;44.540;18.784;2023-04-25T06:40:35;6.25;;;5.15;;
55776;SDS011;54079;44.540;18.784;2023-04-25T06:43:01;5.93;;;4.25;;
55776;SDS011;54079;44.540;18.784;2023-04-25T06:45:27;8.25;;;5.95;;
55776;SDS011;54079;44.540;18.784;2023-04-25T06:47:53;6.38;;;5.20;;
55776;SDS011;54079;44.540;18.784;2023-04-25T06:50:18;9.95;;;6.80;;
55776;SDS011;54079;44.540;18.784;2023-04-25T06:52:44;18.77;;;9.27;;
55776;SDS011;54079;44.540;18.784;2023-04-25T06:55:10;13.77;;;6.75;;
55776;SDS011;54079;44.540;18.784;2023-04-25T06:57:36;7.53;;;4.72;;
55776;SDS011;54079;44.540;18.784;2023-04-25T07:00:03;4.95;;;3.92;;
55776;SDS011;54079;44.540;18.784;2023-04-25T07:02:30;7.00;;;4.75;;
55776;SDS011;54079;44.540;18.784;2023-04-25T07:04:56;11.57;;;7.72;;
55776;SDS011;54079;44.540;18.784;2023-04-25T07:07:25;11.75;;;9.20;;
55776;SDS011;54079;44.540;18.784;2023-04-25T07:09:51;8.35;;;5.90;;
55776;SDS011;54079;44.540;18.784;2023-04-25T07:12:17;8.88;;;7.22;;
55776;SDS011;54079;44.540;18.784;2023-04-25T07:14:43;11.00;;;9.60;;
55776;SDS011;54079;44.540;18.784;2023-04-25T07:17:09;12.00;;;8.27;;
55776;SDS011;54079;44.540;18.784;2023-04-25T07:19:35;11.18;;;8.70;;
55776;SDS011;54079;44.540;18.784;2023-04-25T07:22:02;15.73;;;12.02;;
55776;SDS011;54079;44.540;18.784;2023-04-25T07:24:28;11.00;;;8.50;;
55776;SDS011;54079;44.540;18.784;2023-04-25T07:26:54;12.88;;;9.07;;
55776;SDS011;54079;44.540;18.784;2023-04-25T07:29:21;9.95;;;6.75;;
55776;SDS011;54079;44.540;18.784;2023-04-25T07:31:47;11.05;;;7.82;;
55776;SDS011;54079;44.540;18.784;2023-04-25T07:34:13;9.52;;;8.13;;
55776;SDS011;54079;44.540;18.784;2023-04-25T07:36:39;8.63;;;7.70;;
55776;SDS011;54079;44.540;18.784;2023-04-25T07:39:05;9.35;;;7.32;;
55776;SDS011;54079;44.540;18.784;2023-04-25T07:41:32;6.75;;;5.78;;
55776;SDS011;54079;44.540;18.784;2023-04-25T07:43:58;12.35;;;10.60;;
55776;SDS011;54079;44.540;18.784;2023-04-25T07:46:24;8.65;;;6.80;;
55776;SDS011;54079;44.540;18.784;2023-04-25T07:48:50;8.75;;;6.80;;
55776;SDS011;54079;44.540;18.784;2023-04-25T07:51:16;8.00;;;6.72;;
55776;SDS011;54079;44.540;18.784;2023-04-25T07:53:45;7.75;;;6.07;;
55776;SDS011;54079;44.540;18.784;2023-04-25T07:56:11;8.18;;;7.38;;
55776;SDS011;54079;44.540;18.784;2023-04-25T07:58:37;12.10;;;9.18;;
55776;SDS011;54079;44.540;18.784;2023-04-25T08:01:03;9.00;;;7.25;;
55776;SDS011;54079;44.540;18.784;2023-04-25T08:03:29;7.53;;;6.55;;
55776;SDS011;54079;44.540;18.784;2023-04-25T08:05:55;9.77;;;8.40;;
55776;SDS011;54079;44.540;18.784;2023-04-25T08:08:21;10.90;;;8.45;;
55776;SDS011;54079;44.540;18.784;2023-04-25T08:10:47;10.45;;;8.52;;
55776;SDS011;54079;44.540;18.784;2023-04-25T08:13:15;13.23;;;10.60;;
55776;SDS011;54079;44.540;18.784;2023-04-25T08:15:41;17.98;;;13.88;;
55776;SDS011;54079;44.540;18.784;2023-04-25T08:18:07;16.50;;;13.80;;
55776;SDS011;54079;44.540;18.784;2023-04-25T08:20:33;10.52;;;8.73;;
55776;SDS011;54079;44.540;18.784;2023-04-25T08:22:59;11.25;;;9.32;;
55776;SDS011;54079;44.540;18.784;2023-04-25T08:25:25;10.70;;;8.75;;
55776;SDS011;54079;44.540;18.784;2023-04-25T08:27:51;8.93;;;7.95;;
55776;SDS011;54079;44.540;18.784;2023-04-25T08:30:17;9.45;;;8.02;;
55776;SDS011;54079;44.540;18.784;2023-04-25T08:32:43;11.00;;;9.90;;
55776;SDS011;54079;44.540;18.784;2023-04-25T08:35:09;11.43;;;9.45;;
55776;SDS011;54079;44.540;18.784;2023-04-25T08:37:35;14.52;;;8.73;;
55776;SDS011;54079;44.540;18.784;2023-04-25T08:40:03;15.38;;;8.75;;
55776;SDS011;54079;44.540;18.784;2023-04-25T08:42:33;14.65;;;9.73;;
55776;SDS011;54079;44.540;18.784;2023-04-25T08:45:02;17.20;;;13.93;;
55776;SDS011;54079;44.540;18.784;2023-04-25T08:47:28;20.90;;;16.50;;
55776;SDS011;54079;44.540;18.784;2023-04-25T08:49:58;42.47;;;33.30;;
55776;SDS011;54079;44.540;18.784;2023-04-25T08:52:27;17.08;;;14.23;;
55776;SDS011;54079;44.540;18.784;2023-04-25T08:54:57;15.63;;;13.02;;
55776;SDS011;54079;44.540;18.784;2023-04-25T08:57:26;21.05;;;18.83;;
55776;SDS011;54079;44.540;18.784;2023-04-25T08:59:52;10.40;;;9.30;;
55776;SDS011;54079;44.540;18.784;2023-04-25T09:02:19;11.40;;;9.75;;
55776;SDS011;54079;44.540;18.784;2023-04-25T09:04:45;8.93;;;7.25;;
55776;SDS011;54079;44.540;18.784;2023-04-25T09:07:11;9.73;;;8.77;;
55776;SDS011;54079;44.540;18.784;2023-04-25T09:09:40;11.15;;;9.52;;
55776;SDS011;54079;44.540;18.784;2023-04-25T09:12:06;9.20;;;7.55;;
55776;SDS011;54079;44.540;18.784;2023-04-25T09:14:33;10.65;;;8.82;;
55776;SDS011;54079;44.540;18.784;2023-04-25T09:16:59;7.95;;;5.95;;
55776;SDS011;54079;44.540;18.784;2023-04-25T09:19:31;10.20;;;7.70;;
55776;SDS011;54079;44.540;18.784;2023-04-25T09:22:00;10.75;;;9.07;;
55776;SDS011;54079;44.540;18.784;2023-04-25T09:24:32;6.75;;;6.05;;
55776;SDS011;54079;44.540;18.784;2023-04-25T09:27:05;7.97;;;6.95;;
55776;SDS011;54079;44.540;18.784;2023-04-25T09:29:34;14.68;;;11.40;;
55776;SDS011;54079;44.540;18.784;2023-04-25T09:32:11;6.72;;;6.03;;
55776;SDS011;54079;44.540;18.784;2023-04-25T09:34:51;14.18;;;11.73;;
55776;SDS011;54079;44.540;18.784;2023-04-25T09:37:19;15.98;;;13.25;;
55776;SDS011;54079;44.540;18.784;2023-04-25T09:39:49;6.40;;;5.68;;
55776;SDS011;54079;44.540;18.784;2023-04-25T09:42:17;5.10;;;4.35;;
55776;SDS011;54079;44.540;18.784;2023-04-25T09:44:46;5.60;;;5.00;;
55776;SDS011;54079;44.540;18.784;2023-04-25T09:47:13;6.57;;;5.10;;
55776;SDS011;54079;44.540;18.784;2023-04-25T09:49:43;7.20;;;5.88;;
55776;SDS011;54079;44.540;18.784;2023-04-25T09:52:13;6.97;;;5.35;;
55776;SDS011;54079;44.540;18.784;2023-04-25T09:54:40;6.93;;;5.85;;
55776;SDS011;54079;44.540;18.784;2023-04-25T09:57:11;4.60;;;3.78;;
55776;SDS011;54079;44.540;18.784;2023-04-25T09:59:47;7.95;;;4.63;;
55776;SDS011;54079;44.540;18.784;2023-04-25T10:02:18;3.95;;;3.17;;
55776;SDS011;54079;44.540;18.784;2023-04-25T10:04:51;8.25;;;6.90;;
55776;SDS011;54079;44.540;18.784;2023-04-25T10:07:20;5.25;;;4.15;;
55776;SDS011;54079;44.540;18.784;2023-04-25T10:09:58;5.78;;;5.03;;
55776;SDS011;54079;44.540;18.784;2023-04-25T10:14:52;5.78;;;4.82;;
55776;SDS011;54079;44.540;18.784;2023-04-25T10:17:20;4.50;;;3.65;;
55776;SDS011;54079;44.540;18.784;2023-04-25T10:19:49;4.55;;;3.20;;
55776;SDS011;54079;44.540;18.784;2023-04-25T10:24:56;5.47;;;4.60;;
55776;SDS011;54079;44.540;18.784;2023-04-25T10:27:22;6.63;;;5.22;;
55776;SDS011;54079;44.540;18.784;2023-04-25T10:30:04;6.72;;;5.68;;
55776;SDS011;54079;44.540;18.784;2023-04-25T10:32:36;5.68;;;4.82;;
55776;SDS011;54079;44.540;18.784;2023-04-25T10:35:15;16.80;;;13.75;;
55776;SDS011;54079;44.540;18.784;2023-04-25T10:37:59;6.75;;;5.78;;
55776;SDS011;54079;44.540;18.784;2023-04-25T10:40:28;12.18;;;8.52;;
55776;SDS011;54079;44.540;18.784;2023-04-25T10:42:55;4.97;;;4.40;;
55776;SDS011;54079;44.540;18.784;2023-04-25T10:45:27;6.03;;;4.53;;
55776;SDS011;54079;44.540;18.784;2023-04-25T10:47:53;16.83;;;13.25;;
55776;SDS011;54079;44.540;18.784;2023-04-25T10:50:20;5.90;;;4.90;;
55776;SDS011;54079;44.540;18.784;2023-04-25T10:52:46;8.75;;;6.50;;
55776;SDS011;54079;44.540;18.784;2023-04-25T10:55:12;8.85;;;6.78;;
55776;SDS011;54079;44.540;18.784;2023-04-25T10:57:42;5.43;;;4.55;;
55776;SDS011;54079;44.540;18.784;2023-04-25T11:00:18;7.65;;;5.68;;
55776;SDS011;54079;44.540;18.784;2023-04-25T11:03:08;4.65;;;2.88;;
55776;SDS011;54079;44.540;18.784;2023-04-25T11:05:33;3.22;;;2.63;;
55776;SDS011;54079;44.540;18.784;2023-04-25T11:08:00;4.80;;;2.92;;
55776;SDS011;54079;44.540;18.784;2023-04-25T11:10:31;5.03;;;4.00;;
55776;SDS011;54079;44.540;18.784;2023-04-25T11:13:00;4.05;;;2.70;;
55776;SDS011;54079;44.540;18.784;2023-04-25T11:15:26;5.80;;;5.00;;
55776;SDS011;54079;44.540;18.784;2023-04-25T11:17:53;9.13;;;7.55;;
55776;SDS011;54079;44.540;18.784;2023-04-25T11:20:20;9.20;;;7.18;;
55776;SDS011;54079;44.540;18.784;2023-04-25T11:22:46;6.78;;;4.47;;
55776;SDS011;54079;44.540;18.784;2023-04-25T11:25:14;5.88;;;5.18;;
55776;SDS011;54079;44.540;18.784;2023-04-25T11:30:17;10.60;;;8.45;;
55776;SDS011;54079;44.540;18.784;2023-04-25T11:32:43;6.00;;;5.40;;
55776;SDS011;54079;44.540;18.784;2023-04-25T11:35:10;2.95;;;2.25;;
55776;SDS011;54079;44.540;18.784;2023-04-25T11:37:38;5.55;;;4.63;;
55776;SDS011;54079;44.540;18.784;2023-04-25T11:40:05;3.08;;;2.60;;
55776;SDS011;54079;44.540;18.784;2023-04-25T11:42:33;16.75;;;13.15;;
55776;SDS011;54079;44.540;18.784;2023-04-25T11:44:59;11.23;;;8.35;;
55776;SDS011;54079;44.540;18.784;2023-04-25T11:47:32;12.95;;;9.10;;
55776;SDS011;54079;44.540;18.784;2023-04-25T11:49:59;10.85;;;9.20;;
55776;SDS011;54079;44.540;18.784;2023-04-25T11:52:41;7.82;;;6.78;;
55776;SDS011;54079;44.540;18.784;2023-04-25T11:55:09;6.95;;;6.03;;
55776;SDS011;54079;44.540;18.784;2023-04-25T11:57:40;2.67;;;2.47;;
55776;SDS011;54079;44.540;18.784;2023-04-25T12:00:08;7.80;;;6.13;;
55776;SDS011;54079;44.540;18.784;2023-04-25T12:02:41;7.45;;;6.68;;
55776;SDS011;54079;44.540;18.784;2023-04-25T12:05:10;13.10;;;9.63;;
55776;SDS011;54079;44.540;18.784;2023-04-25T12:07:37;15.90;;;11.80;;
55776;SDS011;54079;44.540;18.784;2023-04-25T12:10:07;13.32;;;11.07;;
55776;SDS011;54079;44.540;18.784;2023-04-25T12:17:46;4.82;;;3.80;;
55776;SDS011;54079;44.540;18.784;2023-04-25T12:20:17;3.20;;;2.90;;
55776;SDS011;54079;44.540;18.784;2023-04-25T12:22:45;7.05;;;4.57;;
55776;SDS011;54079;44.540;18.784;2023-04-25T12:35:57;9.95;;;7.63;;
55776;SDS011;54079;44.540;18.784;2023-04-25T12:40:55;8.88;;;6.70;;
55776;SDS011;54079;44.540;18.784;2023-04-25T12:43:22;3.08;;;2.80;;
55776;SDS011;54079;44.540;18.784;2023-04-25T12:45:51;4.00;;;2.97;;
55776;SDS011;54079;44.540;18.784;2023-04-25T12:48:18;4.63;;;3.88;;
55776;SDS011;54079;44.540;18.784;2023-04-25T12:50:45;9.77;;;8.30;;
55776;SDS011;54079;44.540;18.784;2023-04-25T12:53:14;11.25;;;9.90;;
55776;SDS011;54079;44.540;18.784;2023-04-25T12:55:41;4.10;;;3.38;;
55776;SDS011;54079;44.540;18.784;2023-04-25T12:58:07;1.15;;;0.98;;
55776;SDS011;54079;44.540;18.784;2023-04-25T13:00:33;6.30;;;5.38;;
55776;SDS011;54079;44.540;18.784;2023-04-25T13:02:59;7.45;;;5.93;;
55776;SDS011;54079;44.540;18.784;2023-04-25T13:05:25;5.93;;;5.22;;
55776;SDS011;54079;44.540;18.784;2023-04-25T13:07:51;5.13;;;3.88;;
55776;SDS011;54079;44.540;18.784;2023-04-25T13:10:17;7.30;;;6.40;;
55776;SDS011;54079;44.540;18.784;2023-04-25T13:12:43;7.38;;;5.85;;
55776;SDS011;54079;44.540;18.784;2023-04-25T13:15:10;5.68;;;4.25;;
55776;SDS011;54079;44.540;18.784;2023-04-25T13:17:40;4.05;;;3.50;;
55776;SDS011;54079;44.540;18.784;2023-04-25T13:20:07;5.13;;;3.45;;
55776;SDS011;54079;44.540;18.784;2023-04-25T13:22:40;5.05;;;4.35;;
55776;SDS011;54079;44.540;18.784;2023-04-25T13:25:07;13.98;;;12.48;;
55776;SDS011;54079;44.540;18.784;2023-04-25T13:27:33;10.93;;;8.55;;
55776;SDS011;54079;44.540;18.784;2023-04-25T13:30:00;13.60;;;10.77;;
55776;SDS011;54079;44.540;18.784;2023-04-25T13:32:32;10.93;;;9.25;;
55776;SDS011;54079;44.540;18.784;2023-04-25T13:35:01;7.18;;;5.47;;
55776;SDS011;54079;44.540;18.784;2023-04-25T13:37:31;7.65;;;6.80;;
55776;SDS011;54079;44.540;18.784;2023-04-25T13:40:04;10.00;;;6.82;;
55776;SDS011;54079;44.540;18.784;2023-04-25T13:42:34;6.03;;;5.22;;
55776;SDS011;54079;44.540;18.784;2023-04-25T13:45:00;5.32;;;4.07;;
55776;SDS011;54079;44.540;18.784;2023-04-25T13:47:26;4.20;;;2.47;;
55776;SDS011;54079;44.540;18.784;2023-04-25T13:49:55;5.93;;;5.03;;
55776;SDS011;54079;44.540;18.784;2023-04-25T13:52:21;8.23;;;6.85;;
55776;SDS011;54079;44.540;18.784;2023-04-25T13:54:49;13.27;;;9.82;;
55776;SDS011;54079;44.540;18.784;2023-04-25T13:57:16;8.07;;;6.75;;
55776;SDS011;54079;44.540;18.784;2023-04-25T13:59:45;5.47;;;4.60;;
55776;SDS011;54079;44.540;18.784;2023-04-25T14:02:11;3.35;;;2.55;;
55776;SDS011;54079;44.540;18.784;2023-04-25T14:04:37;5.70;;;4.90;;
55776;SDS011;54079;44.540;18.784;2023-04-25T14:07:03;3.53;;;3.17;;
55776;SDS011;54079;44.540;18.784;2023-04-25T14:09:30;3.50;;;2.00;;
55776;SDS011;54079;44.540;18.784;2023-04-25T14:11:56;2.70;;;1.65;;
55776;SDS011;54079;44.540;18.784;2023-04-25T14:14:22;2.70;;;2.50;;
55776;SDS011;54079;44.540;18.784;2023-04-25T14:16:48;4.93;;;4.43;;
55776;SDS011;54079;44.540;18.784;2023-04-25T14:19:15;5.40;;;4.47;;
55776;SDS011;54079;44.540;18.784;2023-04-25T14:21:42;5.15;;;4.30;;
55776;SDS011;54079;44.540;18.784;2023-04-25T14:24:08;5.18;;;3.67;;
55776;SDS011;54079;44.540;18.784;2023-04-25T14:26:36;9.18;;;6.15;;
55776;SDS011;54079;44.540;18.784;2023-04-25T14:29:03;5.10;;;2.97;;
55776;SDS011;54079;44.540;18.784;2023-04-25T14:31:33;5.60;;;5.00;;
55776;SDS011;54079;44.540;18.784;2023-04-25T14:34:00;3.30;;;1.45;;
55776;SDS011;54079;44.540;18.784;2023-04-25T14:36:30;2.58;;;2.17;;
55776;SDS011;54079;44.540;18.784;2023-04-25T14:38:56;2.47;;;2.13;;
55776;SDS011;54079;44.540;18.784;2023-04-25T14:41:24;4.82;;;4.25;;
55776;SDS011;54079;44.540;18.784;2023-04-25T14:43:51;4.68;;;2.15;;
55776;SDS011;54079;44.540;18.784;2023-04-25T14:46:21;1.88;;;1.20;;
55776;SDS011;54079;44.540;18.784;2023-04-25T14:48:48;6.80;;;5.78;;
55776;SDS011;54079;44.540;18.784;2023-04-25T14:51:14;3.80;;;1.88;;
55776;SDS011;54079;44.540;18.784;2023-04-25T14:53:41;1.58;;;0.90;;
55776;SDS011;54079;44.540;18.784;2023-04-25T14:56:07;0.30;;;0.30;;
55776;SDS011;54079;44.540;18.784;2023-04-25T14:58:34;0.68;;;0.60;;